Accueil
METAR-TAF:

METAR-TAF

Aéroports :

Wittering, Angleterre

latitude: 52-37N, longitude: 000-28W, altitude: 84 m

Observation

Le bulletin a été fait il y a 28 minutes, à 19:50 UTC
Vent 6 kt de est
Température 2°C
Humidité 87%
Pression 1009 hPa
Visibilité 10 km ou plus

METAR: EGXT 201950Z AUTO 08006KT 9999 NCD 02/00 Q1009

Heure: 20:18 (20:18 UTC)

Prévision

Le bulletin a été fait il y a 6 heures et 47 minutes, à 13:31 UTC
Prévision valable du 20 à 15 UTC au 20 à 18 UTC
Vent 11 kt de sud-est
Visibilité 10 km ou plus
Quelques nuages à une hauteur de 2200 ft
Nuages épars à une hauteur de 4500 ft

TAF: EGXT 201331Z 2015/2018 14011KT 9999 FEW022 SCT045

Observations et prévisions météorologiques de plus de 4000 aéroports (messages METAR et TAF).

Les stations disponibles sont représentées par des disques jaunes et rouges sur la carte.

Passer la souris dessus pour voir le nom de la station.

Cliquer dessus pour voir les observations et prévisions météorologiques.

Pour changer de carte: cliquez sur les boutons verts avec une croix noire pour zoomer, sur le bouton vert avec un tiret pour effectuer un zoom arrière, ou sur les flèches vertes pour les cartes adjacentes.


METAR-TAF: